Time;durP1;ratioP1;P1;durP2;ratioP2;P2;SDS_P1;SDS_P2;PMS_P1;PMS_P2;Temp;Humidity;BMP_temperature;BMP_pressure;BME280_temperature;BME280_humidity;BME280_pressure;Samples;Min_cycle;Max_cycle;Signal;HPM_P1;HPM_P2
2023/09/05 00:00:10;;;;;;;5.13;3.90;;;;;;;;;;5037587;28;20229;-67
2023/09/05 00:02:43;;;;;;;5.40;3.50;;;;;;;;;;5055524;28;20628;-67
2023/09/05 00:05:09;;;;;;;6.70;3.93;;;;;;;;;;5055094;28;20202;-68
2023/09/05 00:07:36;;;;;;;4.13;3.60;;;;;;;;;;5054941;28;20178;-68
2023/09/05 00:10:05;;;;;;;6.03;4.20;;;;;;;;;;5054924;28;20228;-68
2023/09/05 00:12:32;;;;;;;8.77;4.40;;;;;;;;;;5037103;28;20189;-67
2023/09/05 00:14:58;;;;;;;6.77;3.77;;;;;;;;;;5036986;28;20632;-67
2023/09/05 00:17:24;;;;;;;7.27;4.00;;;;;;;;;;5036791;28;20182;-67
2023/09/05 00:19:51;;;;;;;6.87;4.10;;;;;;;;;;5036824;28;20199;-67
2023/09/05 00:22:18;;;;;;;7.90;4.37;;;;;;;;;;5054876;28;20182;-67
2023/09/05 00:24:44;;;;;;;6.00;3.83;;;;;;;;;;5055152;28;20554;-67
2023/09/05 00:27:10;;;;;;;6.67;4.30;;;;;;;;;;5054595;28;20178;-68
2023/09/05 00:29:36;;;;;;;7.23;4.40;;;;;;;;;;5036719;28;20202;-68
2023/09/05 00:32:03;;;;;;;4.67;3.77;;;;;;;;;;5055072;28;20240;-67
2023/09/05 00:34:30;;;;;;;10.17;5.17;;;;;;;;;;5036495;28;20213;-67
2023/09/05 00:36:58;;;;;;;6.13;3.60;;;;;;;;;;5036418;28;20179;-67
2023/09/05 00:39:25;;;;;;;4.70;4.30;;;;;;;;;;5036466;28;20209;-68
2023/09/05 00:41:51;;;;;;;5.03;3.83;;;;;;;;;;5036582;28;20213;-67
2023/09/05 00:44:17;;;;;;;7.53;4.17;;;;;;;;;;5054878;28;20214;-67
2023/09/05 00:46:45;;;;;;;5.60;4.20;;;;;;;;;;5039887;28;20239;-67
2023/09/05 00:49:12;;;;;;;6.77;4.60;;;;;;;;;;5075452;28;20274;-68
2023/09/05 00:51:39;;;;;;;5.60;4.60;;;;;;;;;;5074869;28;20251;-70
2023/09/05 00:54:06;;;;;;;6.47;4.50;;;;;;;;;;5069128;28;20206;-68
2023/09/05 00:56:32;;;;;;;6.00;4.53;;;;;;;;;;5056113;28;20179;-67
2023/09/05 00:58:59;;;;;;;7.00;4.57;;;;;;;;;;5054981;28;20194;-67
2023/09/05 01:01:25;;;;;;;5.97;4.23;;;;;;;;;;5055270;28;20167;-67
2023/09/05 01:03:51;;;;;;;7.03;4.77;;;;;;;;;;5054760;28;20201;-68
2023/09/05 01:06:38;;;;;;;8.67;4.77;;;;;;;;;;5036208;28;20201;-67
2023/09/05 01:09:18;;;;;;;8.07;4.53;;;;;;;;;;5036273;28;20671;-70
2023/09/05 01:11:45;;;;;;;7.10;4.30;;;;;;;;;;5054446;28;20551;-67
2023/09/05 01:14:11;;;;;;;4.90;4.30;;;;;;;;;;5036154;28;20744;-67
2023/09/05 01:16:43;;;;;;;7.77;5.10;;;;;;;;;;5054066;28;20167;-67
2023/09/05 01:19:12;;;;;;;10.67;4.60;;;;;;;;;;5054032;28;20194;-68
2023/09/05 01:21:40;;;;;;;5.17;4.67;;;;;;;;;;5053696;28;20257;-67
2023/09/05 01:24:16;;;;;;;7.10;4.50;;;;;;;;;;5053476;28;20602;-68
2023/09/05 01:26:43;;;;;;;9.70;4.87;;;;;;;;;;5053808;28;20640;-68
2023/09/05 01:29:11;;;;;;;6.40;4.73;;;;;;;;;;5053929;28;20198;-67
2023/09/05 01:31:38;;;;;;;7.33;5.20;;;;;;;;;;5054162;28;20170;-67
2023/09/05 01:34:04;;;;;;;9.13;5.63;;;;;;;;;;5053441;28;20238;-67
2023/09/05 01:36:30;;;;;;;8.37;4.33;;;;;;;;;;5053491;28;20186;-67
2023/09/05 01:38:56;;;;;;;6.20;4.87;;;;;;;;;;5054157;28;20194;-67
2023/09/05 01:41:21;;;;;;;7.77;4.33;;;;;;;;;;5053951;28;20764;-68
2023/09/05 01:43:47;;;;;;;7.03;4.53;;;;;;;;;;5054369;28;20185;-67
2023/09/05 01:46:13;;;;;;;7.83;4.43;;;;;;;;;;5053721;28;20189;-67
2023/09/05 01:48:39;;;;;;;6.20;4.57;;;;;;;;;;5053777;28;20202;-68
2023/09/05 01:51:05;;;;;;;10.00;4.57;;;;;;;;;;5053991;28;20617;-67
2023/09/05 01:53:31;;;;;;;6.70;4.90;;;;;;;;;;5053338;28;20221;-67
2023/09/05 01:56:00;;;;;;;13.00;5.30;;;;;;;;;;5053503;28;20261;-69
2023/09/05 01:58:26;;;;;;;6.47;4.80;;;;;;;;;;5053520;28;20257;-68
2023/09/05 02:00:52;;;;;;;10.10;5.47;;;;;;;;;;5053461;28;20209;-67
2023/09/05 02:03:18;;;;;;;6.07;5.00;;;;;;;;;;5053602;28;20580;-67
2023/09/05 02:05:44;;;;;;;11.20;4.93;;;;;;;;;;5061867;28;20208;-67
2023/09/05 02:08:11;;;;;;;8.03;5.07;;;;;;;;;;5075324;28;20213;-68
2023/09/05 02:10:37;;;;;;;7.07;5.03;;;;;;;;;;5073800;28;20262;-68
2023/09/05 02:13:03;;;;;;;7.77;4.87;;;;;;;;;;5073668;28;20206;-67
2023/09/05 02:15:29;;;;;;;9.40;5.00;;;;;;;;;;5072939;28;20150;-67
2023/09/05 02:17:55;;;;;;;10.53;4.93;;;;;;;;;;5055342;28;20185;-67
2023/09/05 02:20:22;;;;;;;12.27;5.37;;;;;;;;;;5055542;28;20201;-68
2023/09/05 02:22:48;;;;;;;8.63;5.27;;;;;;;;;;5058714;28;20217;-68
2023/09/05 02:25:14;;;;;;;7.40;4.87;;;;;;;;;;5052896;28;20174;-68
2023/09/05 02:27:40;;;;;;;7.77;5.20;;;;;;;;;;5036552;28;20197;-67
2023/09/05 02:30:07;;;;;;;6.93;4.63;;;;;;;;;;5060966;28;20222;-68
2023/09/05 02:32:33;;;;;;;11.23;5.23;;;;;;;;;;5040006;28;20561;-68
2023/09/05 02:34:59;;;;;;;8.97;5.40;;;;;;;;;;5035575;28;20272;-68
2023/09/05 02:37:26;;;;;;;5.47;4.70;;;;;;;;;;5035688;28;20200;-68
2023/09/05 02:39:52;;;;;;;7.57;4.80;;;;;;;;;;5035200;28;20297;-68
2023/09/05 02:42:18;;;;;;;8.90;5.10;;;;;;;;;;5034913;28;20171;-68
2023/09/05 02:44:44;;;;;;;9.93;5.07;;;;;;;;;;5052732;28;20194;-69
2023/09/05 02:47:10;;;;;;;5.03;4.53;;;;;;;;;;5052718;28;20179;-68
2023/09/05 02:49:36;;;;;;;5.83;4.60;;;;;;;;;;5052407;28;20220;-69
2023/09/05 02:52:02;;;;;;;5.73;4.80;;;;;;;;;;5052744;28;20257;-68
2023/09/05 02:54:29;;;;;;;5.30;4.70;;;;;;;;;;5053094;28;20205;-68
2023/09/05 02:56:55;;;;;;;5.53;4.73;;;;;;;;;;5052507;28;20324;-68
2023/09/05 02:59:21;;;;;;;7.50;4.73;;;;;;;;;;5052793;28;20680;-68
2023/09/05 03:01:47;;;;;;;6.87;4.30;;;;;;;;;;5034727;28;20185;-68
2023/09/05 03:04:16;;;;;;;7.93;4.70;;;;;;;;;;5034539;28;20192;-69
2023/09/05 03:06:42;;;;;;;6.60;5.10;;;;;;;;;;5053040;28;20642;-69
2023/09/05 03:09:08;;;;;;;6.97;4.57;;;;;;;;;;5052939;28;20210;-69
2023/09/05 03:11:34;;;;;;;10.13;4.23;;;;;;;;;;5052631;28;20592;-69
2023/09/05 03:14:01;;;;;;;6.80;4.40;;;;;;;;;;5052245;28;20288;-70
2023/09/05 03:16:28;;;;;;;;;;;;;;;;;;5052968;28;20051;-69
2023/09/05 03:18:59;;;;;;;;;;;;;;;;;;5052903;28;19952;-69
2023/09/05 03:21:25;;;;;;;;;;;;;;;;;;5053467;28;20039;-69
2023/09/05 03:23:51;;;;;;;;;;;;;;;;;;5056679;28;19951;-69
2023/09/05 03:26:18;;;;;;;;;;;;;;;;;;5056810;28;20456;-68
2023/09/05 03:28:44;;;;;;;;;;;;;;;;;;5056629;28;19934;-69
2023/09/05 03:31:10;;;;;;;;;;;;;;;;;;5056144;28;19945;-69
2023/09/05 03:33:36;;;;;;;;;;;;;;;;;;5056113;28;19950;-68
2023/09/05 03:36:05;;;;;;;;;;;;;;;;;;5056317;28;19944;-68
2023/09/05 03:38:30;;;;;;;;;;;;;;;;;;5038093;28;19988;-69
2023/09/05 03:40:56;;;;;;;;;;;;;;;;;;5056286;28;19942;-68
2023/09/05 03:43:22;;;;;;;;;;;;;;;;;;5055764;28;19996;-69
2023/09/05 03:45:49;;;;;;;;;;;;;;;;;;5037873;28;20454;-68
2023/09/05 03:48:15;;;;;;;;;;;;;;;;;;5055775;28;19938;-69
2023/09/05 03:50:41;;;;;;;;;;;;;;;;;;5056536;28;19950;-68
2023/09/05 03:53:06;;;;;;;;;;;;;;;;;;5055607;28;19944;-69
2023/09/05 03:55:34;;;;;;;;;;;;;;;;;;5037945;28;20362;-69
2023/09/05 03:58:00;;;;;;;;;;;;;;;;;;5037691;28;19949;-68
2023/09/05 04:00:26;;;;;;;;;;;;;;;;;;5055789;28;19942;-68
2023/09/05 04:02:52;;;;;;;;;;;;;;;;;;5037602;28;19942;-68
2023/09/05 04:05:17;;;;;;;;;;;;;;;;;;5055415;28;19927;-68
2023/09/05 04:07:43;;;;;;;;;;;;;;;;;;5055200;28;20012;-68
2023/09/05 04:10:09;;;;;;;10.20;4.70;;;;;;;;;;5055028;28;19912;-69
2023/09/05 04:12:37;;;;;;;9.73;4.87;;;;;;;;;;5037069;28;20174;-69
2023/09/05 04:15:03;;;;;;;6.43;5.10;;;;;;;;;;5069485;28;20222;-70
2023/09/05 04:17:29;;;;;;;10.97;5.00;;;;;;;;;;5069252;28;20166;-70
2023/09/05 04:19:55;;;;;;;10.97;4.80;;;;;;;;;;5047591;28;20230;-69
2023/09/05 04:22:21;;;;;;;9.07;5.23;;;;;;;;;;5055636;28;20637;-70
2023/09/05 04:24:52;;;;;;;10.47;4.93;;;;;;;;;;5055615;28;20710;-69
2023/09/05 04:27:18;;;;;;;8.07;4.73;;;;;;;;;;5056754;28;20163;-69
2023/09/05 04:29:44;;;;;;;9.37;4.73;;;;;;;;;;5054455;28;20340;-69
2023/09/05 04:32:09;;;;;;;8.30;4.97;;;;;;;;;;5054057;28;20189;-68
2023/09/05 04:34:35;;;;;;;8.63;4.60;;;;;;;;;;5036714;28;20240;-69
2023/09/05 04:37:01;;;;;;;12.40;5.13;;;;;;;;;;5055005;28;20686;-68
2023/09/05 04:39:27;;;;;;;10.67;5.70;;;;;;;;;;5036502;28;20643;-69
2023/09/05 04:41:53;;;;;;;11.97;4.87;;;;;;;;;;5054602;28;20178;-68
2023/09/05 04:44:19;;;;;;;12.03;5.10;;;;;;;;;;5036551;28;20190;-69
2023/09/05 04:46:45;;;;;;;12.13;5.47;;;;;;;;;;5054559;28;20183;-68
2023/09/05 04:49:11;;;;;;;11.07;5.53;;;;;;;;;;5054197;28;20313;-69
2023/09/05 04:51:37;;;;;;;7.50;5.20;;;;;;;;;;5054069;28;20266;-68
2023/09/05 04:54:05;;;;;;;9.83;5.13;;;;;;;;;;5036182;28;20245;-68
2023/09/05 04:56:31;;;;;;;10.13;5.70;;;;;;;;;;5078567;22;20226;-69
2023/09/05 04:58:57;;;;;;;7.20;5.47;;;;;;;;;;5055172;28;20256;-69
2023/09/05 05:01:23;;;;;;;9.97;5.47;;;;;;;;;;5054670;28;20178;-70
2023/09/05 05:03:49;;;;;;;8.23;5.57;;;;;;;;;;5054566;28;20261;-69
2023/09/05 05:06:15;;;;;;;9.30;5.90;;;;;;;;;;5054129;28;20197;-69
2023/09/05 05:08:40;;;;;;;13.27;6.33;;;;;;;;;;5053894;28;20201;-69
2023/09/05 05:11:07;;;;;;;7.77;5.67;;;;;;;;;;5053943;28;20640;-69
2023/09/05 05:13:33;;;;;;;9.73;5.73;;;;;;;;;;5054025;28;20202;-69
2023/09/05 05:15:59;;;;;;;11.03;6.00;;;;;;;;;;5053975;28;20178;-70
2023/09/05 05:18:25;;;;;;;11.30;5.60;;;;;;;;;;5053791;28;20551;-69
2023/09/05 05:20:51;;;;;;;8.83;5.60;;;;;;;;;;5053936;28;20174;-69
2023/09/05 05:23:17;;;;;;;14.63;6.40;;;;;;;;;;5036041;28;20179;-69
2023/09/05 05:25:43;;;;;;;15.77;6.03;;;;;;;;;;5054096;28;20187;-69
2023/09/05 05:28:09;;;;;;;12.37;7.10;;;;;;;;;;5035897;28;20203;-68
2023/09/05 05:30:36;;;;;;;17.20;7.70;;;;;;;;;;5053812;28;20185;-69
2023/09/05 05:33:02;;;;;;;23.10;7.20;;;;;;;;;;5035720;28;20817;-69
2023/09/05 05:35:28;;;;;;;17.47;7.47;;;;;;;;;;5035762;28;20189;-69
2023/09/05 05:37:54;;;;;;;15.73;7.90;;;;;;;;;;5053557;28;20198;-69
2023/09/05 05:40:21;;;;;;;12.40;7.93;;;;;;;;;;5053971;28;20185;-69
2023/09/05 05:42:47;;;;;;;23.67;8.97;;;;;;;;;;5054061;28;20173;-69
2023/09/05 05:45:14;;;;;;;16.67;8.40;;;;;;;;;;5052947;28;20182;-69
2023/09/05 05:47:40;;;;;;;17.27;8.43;;;;;;;;;;5053437;28;20200;-69
2023/09/05 05:50:09;;;;;;;22.57;8.73;;;;;;;;;;5053679;28;20620;-67
2023/09/05 05:52:35;;;;;;;21.07;8.70;;;;;;;;;;5035492;28;20667;-69
2023/09/05 05:55:01;;;;;;;16.00;8.97;;;;;;;;;;5053371;28;20198;-67
2023/09/05 05:57:27;;;;;;;17.73;7.57;;;;;;;;;;5053057;28;20221;-68
2023/09/05 05:59:53;;;;;;;15.27;7.70;;;;;;;;;;5053260;28;20171;-68
2023/09/05 06:02:19;;;;;;;21.33;8.03;;;;;;;;;;5053557;28;20196;-68
2023/09/05 06:04:45;;;;;;;16.00;6.60;;;;;;;;;;5053847;28;20548;-68
2023/09/05 06:07:11;;;;;;;16.83;6.53;;;;;;;;;;5053410;28;20206;-68
2023/09/05 06:09:37;;;;;;;14.17;6.70;;;;;;;;;;5035364;28;20213;-68
2023/09/05 06:12:04;;;;;;;14.13;6.50;;;;;;;;;;5053173;28;20185;-67
2023/09/05 06:14:30;;;;;;;8.67;5.77;;;;;;;;;;5053150;28;20194;-68
2023/09/05 06:16:56;;;;;;;8.10;5.20;;;;;;;;;;5053094;28;20205;-68
2023/09/05 06:19:22;;;;;;;11.17;5.73;;;;;;;;;;5035355;28;20722;-68
2023/09/05 06:21:48;;;;;;;9.13;5.80;;;;;;;;;;5035226;28;20225;-68
2023/09/05 06:24:14;;;;;;;18.73;7.23;;;;;;;;;;5053164;28;20652;-68
2023/09/05 06:26:41;;;;;;;14.07;5.23;;;;;;;;;;5053531;28;20229;-67
2023/09/05 06:29:07;;;;;;;7.00;5.03;;;;;;;;;;5035647;28;20183;-68
2023/09/05 06:31:33;;;;;;;7.97;4.93;;;;;;;;;;5035637;28;20205;-67
2023/09/05 06:33:59;;;;;;;13.00;5.73;;;;;;;;;;5045161;28;20210;-68
2023/09/05 06:36:25;;;;;;;15.20;5.83;;;;;;;;;;5056669;28;20625;-68
2023/09/05 06:38:51;;;;;;;8.17;4.60;;;;;;;;;;5053486;28;20179;-68
2023/09/05 06:41:17;;;;;;;7.97;5.13;;;;;;;;;;5035955;28;20175;-68
2023/09/05 06:43:43;;;;;;;10.53;4.37;;;;;;;;;;5053567;28;20178;-67
2023/09/05 06:46:09;;;;;;;9.07;5.03;;;;;;;;;;5053638;28;20178;-67
2023/09/05 06:48:36;;;;;;;10.53;5.00;;;;;;;;;;5052963;28;20632;-67
2023/09/05 06:51:01;;;;;;;7.80;4.80;;;;;;;;;;5052866;28;20187;-67
2023/09/05 06:53:28;;;;;;;15.20;5.77;;;;;;;;;;5052865;28;20255;-68
2023/09/05 06:55:54;;;;;;;12.13;5.17;;;;;;;;;;5054127;28;20175;-67
2023/09/05 06:58:22;;;;;;;11.37;5.80;;;;;;;;;;5056715;28;20710;-67
2023/09/05 07:00:54;;;;;;;12.63;4.57;;;;;;;;;;5038425;28;20182;-67
2023/09/05 07:03:26;;;;;;;16.17;5.63;;;;;;;;;;5056450;28;20193;-68
2023/09/05 07:05:53;;;;;;;10.40;5.03;;;;;;;;;;5056446;28;20182;-67
2023/09/05 07:08:19;;;;;;;11.87;5.80;;;;;;;;;;5056187;28;20174;-67
2023/09/05 07:10:45;;;;;;;13.10;5.40;;;;;;;;;;5056322;28;20175;-67
2023/09/05 07:13:11;;;;;;;8.57;5.67;;;;;;;;;;5056153;28;20209;-67
2023/09/05 07:15:37;;;;;;;10.87;5.60;;;;;;;;;;5038418;28;20178;-67
2023/09/05 07:18:04;;;;;;;10.10;4.90;;;;;;;;;;5056089;28;20198;-67
2023/09/05 07:20:30;;;;;;;13.20;5.07;;;;;;;;;;5056276;28;20263;-68
2023/09/05 07:22:56;;;;;;;6.20;3.73;;;;;;;;;;5038276;28;20182;-67
2023/09/05 07:25:22;;;;;;;9.63;3.93;;;;;;;;;;5038368;28;20171;-67
2023/09/05 07:27:48;;;;;;;7.40;3.50;;;;;;;;;;5056319;28;20202;-67
2023/09/05 07:30:16;;;;;;;5.97;3.43;;;;;;;;;;5058185;28;20266;-67
2023/09/05 07:32:42;;;;;;;10.43;3.57;;;;;;;;;;5056330;28;20201;-67
2023/09/05 07:35:08;;;;;;;4.53;3.17;;;;;;;;;;5055960;28;20238;-67
2023/09/05 07:37:34;;;;;;;3.97;3.47;;;;;;;;;;5056180;28;20277;-67
2023/09/05 07:40:00;;;;;;;5.13;2.80;;;;;;;;;;5055780;28;20680;-67
2023/09/05 07:42:27;;;;;;;3.57;3.27;;;;;;;;;;5055735;28;20597;-67
2023/09/05 07:44:53;;;;;;;4.23;3.40;;;;;;;;;;5037967;28;20245;-67
2023/09/05 07:47:19;;;;;;;5.47;3.33;;;;;;;;;;5037662;28;20668;-67
2023/09/05 07:49:45;;;;;;;4.60;3.00;;;;;;;;;;5055522;28;20717;-67
2023/09/05 07:52:11;;;;;;;6.60;3.53;;;;;;;;;;5037569;28;20273;-67
2023/09/05 07:54:37;;;;;;;8.13;3.07;;;;;;;;;;5055804;28;20198;-69
2023/09/05 07:57:03;;;;;;;5.10;3.03;;;;;;;;;;5055517;28;20277;-67
2023/09/05 07:59:31;;;;;;;9.13;3.40;;;;;;;;;;5055549;28;20546;-69
2023/09/05 08:01:57;;;;;;;9.00;3.67;;;;;;;;;;5055573;28;20175;-68
2023/09/05 08:04:23;;;;;;;6.67;3.00;;;;;;;;;;5055497;28;20193;-68
2023/09/05 08:06:49;;;;;;;6.40;3.63;;;;;;;;;;5054359;28;20325;-68
2023/09/05 08:09:15;;;;;;;8.30;3.90;;;;;;;;;;5037081;28;20182;-68
2023/09/05 08:11:41;;;;;;;6.90;3.77;;;;;;;;;;5055114;28;20660;-72
2023/09/05 08:14:07;;;;;;;6.20;3.30;;;;;;;;;;5055443;28;20557;-69
2023/09/05 08:16:34;;;;;;;5.30;3.03;;;;;;;;;;5054923;28;20236;-68
2023/09/05 08:19:00;;;;;;;5.27;3.73;;;;;;;;;;5037311;28;20552;-68
2023/09/05 08:21:26;;;;;;;4.97;4.23;;;;;;;;;;5055545;28;20174;-68
2023/09/05 08:23:52;;;;;;;4.33;3.53;;;;;;;;;;5037839;28;20182;-68
2023/09/05 08:26:19;;;;;;;10.37;3.50;;;;;;;;;;5054731;28;20206;-68
2023/09/05 08:28:45;;;;;;;6.27;2.97;;;;;;;;;;5054643;28;20182;-68
2023/09/05 08:31:12;;;;;;;7.17;3.70;;;;;;;;;;5036895;28;20657;-68
2023/09/05 08:33:38;;;;;;;8.37;5.37;;;;;;;;;;5054667;28;20277;-68
2023/09/05 08:36:05;;;;;;;3.73;3.13;;;;;;;;;;5036515;28;20209;-68
2023/09/05 08:38:31;;;;;;;4.23;3.03;;;;;;;;;;5054457;28;20171;-68
2023/09/05 08:41:00;;;;;;;9.97;4.73;;;;;;;;;;5054368;28;20175;-68
2023/09/05 08:43:48;;;;;;;10.50;3.63;;;;;;;;;;5036798;28;20206;-67
2023/09/05 08:46:15;;;;;;;4.50;2.50;;;;;;;;;;5054531;28;20281;-67
2023/09/05 08:48:41;;;;;;;7.03;2.87;;;;;;;;;;5054309;28;20229;-67
2023/09/05 08:51:07;;;;;;;5.93;4.27;;;;;;;;;;5054451;28;20261;-67
2023/09/05 08:53:37;;;;;;;5.30;4.17;;;;;;;;;;5055814;28;20273;-67
2023/09/05 08:56:03;;;;;;;6.93;4.00;;;;;;;;;;5055614;28;20187;-67
2023/09/05 08:58:30;;;;;;;5.67;3.40;;;;;;;;;;5037075;28;20547;-67
2023/09/05 09:00:56;;;;;;;6.23;3.40;;;;;;;;;;5054496;28;20549;-67
2023/09/05 09:03:22;;;;;;;7.10;3.53;;;;;;;;;;5054084;28;20257;-67
2023/09/05 09:05:49;;;;;;;6.53;3.53;;;;;;;;;;5036451;28;20178;-67
2023/09/05 09:08:15;;;;;;;7.83;3.33;;;;;;;;;;5054062;28;20198;-68
2023/09/05 09:10:41;;;;;;;7.40;2.90;;;;;;;;;;5054007;28;20174;-67
2023/09/05 09:13:15;;;;;;;6.90;3.37;;;;;;;;;;5054000;28;20181;-67
2023/09/05 09:15:43;;;;;;;9.30;3.13;;;;;;;;;;5054384;28;20178;-67
2023/09/05 09:18:12;;;;;;;4.47;2.93;;;;;;;;;;5055224;28;20569;-67
2023/09/05 09:20:42;;;;;;;3.63;2.47;;;;;;;;;;5054162;28;20174;-67
2023/09/05 09:23:08;;;;;;;10.67;3.90;;;;;;;;;;5036342;28;20197;-67
2023/09/05 09:25:34;;;;;;;5.37;3.60;;;;;;;;;;5054320;28;20282;-68
2023/09/05 09:28:00;;;;;;;5.50;2.97;;;;;;;;;;5053926;28;20194;-67
2023/09/05 09:30:29;;;;;;;5.33;3.33;;;;;;;;;;5035742;28;20221;-67
2023/09/05 09:32:55;;;;;;;8.70;3.33;;;;;;;;;;5053650;28;20174;-67
2023/09/05 09:35:22;;;;;;;4.00;3.40;;;;;;;;;;5053516;28;20574;-67
2023/09/05 09:37:49;;;;;;;7.10;3.70;;;;;;;;;;5053918;28;20214;-67
2023/09/05 09:40:16;;;;;;;5.00;3.73;;;;;;;;;;5053670;28;20179;-67
2023/09/05 09:42:43;;;;;;;4.67;3.73;;;;;;;;;;5035843;28;20178;-68
2023/09/05 09:45:09;;;;;;;6.07;3.47;;;;;;;;;;5053371;28;20179;-68
2023/09/05 09:47:38;;;;;;;6.43;3.67;;;;;;;;;;5053388;28;20343;-68
2023/09/05 09:50:04;;;;;;;5.90;3.23;;;;;;;;;;5053986;28;20554;-68
2023/09/05 09:52:31;;;;;;;6.23;3.20;;;;;;;;;;5035583;28;20178;-68
2023/09/05 09:55:00;;;;;;;4.27;3.40;;;;;;;;;;5053232;28;20208;-68
2023/09/05 09:57:30;;;;;;;6.30;3.23;;;;;;;;;;5052994;28;20279;-68
2023/09/05 09:59:58;;;;;;;5.67;3.50;;;;;;;;;;5035502;28;20181;-68
2023/09/05 10:02:25;;;;;;;7.40;2.77;;;;;;;;;;5053400;28;20175;-68
2023/09/05 10:04:53;;;;;;;2.70;2.50;;;;;;;;;;5053179;28;20193;-68
2023/09/05 10:07:19;;;;;;;6.70;3.37;;;;;;;;;;5053558;28;20649;-68
2023/09/05 10:09:47;;;;;;;4.23;3.07;;;;;;;;;;5053497;28;20178;-68
2023/09/05 10:12:18;;;;;;;6.20;2.78;;;;;;;;;;5053844;28;20400;-69
2023/09/05 10:14:45;;;;;;;5.63;2.63;;;;;;;;;;5053720;28;20719;-68
2023/09/05 10:17:13;;;;;;;3.95;2.75;;;;;;;;;;5033782;28;20871;-68
2023/09/05 10:19:41;;;;;;;2.83;2.60;;;;;;;;;;5053724;28;20190;-68
2023/09/05 10:22:08;;;;;;;2.80;2.60;;;;;;;;;;5053371;28;20178;-68
2023/09/05 10:24:35;;;;;;;3.15;2.55;;;;;;;;;;5051874;28;20392;-69
2023/09/05 10:27:01;;;;;;;12.07;2.70;;;;;;;;;;5052856;28;20201;-69
2023/09/05 10:29:35;;;;;;;3.85;3.30;;;;;;;;;;5051696;28;20437;-69
2023/09/05 10:32:04;;;;;;;7.13;3.70;;;;;;;;;;5038496;28;20201;-68
2023/09/05 10:34:48;;;;;;;4.30;3.70;;;;;;;;;;5055761;28;20412;-69
2023/09/05 10:37:33;;;;;;;10.57;4.13;;;;;;;;;;5056935;28;20961;-69
2023/09/05 10:40:07;;;;;;;6.22;3.10;;;;;;;;;;5055852;28;20376;-68
2023/09/05 10:42:33;;;;;;;5.40;2.60;;;;;;;;;;5057061;28;20632;-69
2023/09/05 10:45:00;;;;;;;3.40;2.90;;;;;;;;;;5056766;28;20177;-68
2023/09/05 10:47:29;;;;;;;5.35;2.60;;;;;;;;;;5055541;28;20373;-69
2023/09/05 10:50:04;;;;;;;3.80;2.47;;;;;;;;;;5056312;28;20389;-67
2023/09/05 10:52:30;;;;;;;2.33;2.10;;;;;;;;;;5057362;28;20178;-68
2023/09/05 10:54:57;;;;;;;4.50;2.40;;;;;;;;;;5055824;28;20412;-67
2023/09/05 10:57:36;;;;;;;3.67;2.33;;;;;;;;;;5056724;28;20639;-69
2023/09/05 11:00:14;;;;;;;3.45;2.40;;;;;;;;;;5055480;28;20388;-68
2023/09/05 11:02:41;;;;;;;4.67;2.60;;;;;;;;;;5037667;28;20871;-68
2023/09/05 11:05:17;;;;;;;4.38;2.85;;;;;;;;;;5055434;28;20389;-68
2023/09/05 11:07:44;;;;;;;4.45;3.45;;;;;;;;;;5040734;28;20390;-69
2023/09/05 11:10:29;;;;;;;6.00;3.13;;;;;;;;;;5058111;28;20602;-69
2023/09/05 11:12:55;;;;;;;3.65;2.40;;;;;;;;;;5059299;28;20377;-69
2023/09/05 11:15:31;;;;;;;3.50;2.30;;;;;;;;;;5039877;28;20484;-69
2023/09/05 11:18:05;;;;;;;5.30;2.85;;;;;;;;;;5056004;28;20405;-68
2023/09/05 11:20:40;;;;;;;5.88;2.38;;;;;;;;;;5055882;28;20374;-68
2023/09/05 11:23:15;;;;;;;3.15;2.30;;;;;;;;;;5056654;28;20374;-66
2023/09/05 11:25:46;;;;;;;5.03;2.70;;;;;;;;;;5037766;28;20906;-68
2023/09/05 11:28:12;;;;;;;4.93;2.80;;;;;;;;;;5055381;28;20388;-67
2023/09/05 11:30:40;;;;;;;5.72;2.90;;;;;;;;;;5055913;28;20392;-67
2023/09/05 11:33:15;;;;;;;4.80;2.20;;;;;;;;;;5055298;28;20377;-69
2023/09/05 11:35:45;;;;;;;5.57;2.30;;;;;;;;;;5036894;28;20381;-70
2023/09/05 11:38:11;;;;;;;4.30;2.60;;;;;;;;;;5036799;28;20435;-70
2023/09/05 11:40:38;;;;;;;3.73;2.23;;;;;;;;;;5054607;28;20373;-69
2023/09/05 11:43:08;;;;;;;6.45;2.40;;;;;;;;;;5053336;28;20450;-69
2023/09/05 11:45:35;;;;;;;8.60;2.70;;;;;;;;;;5055411;28;20881;-67
2023/09/05 11:48:02;;;;;;;5.70;2.50;;;;;;;;;;5055228;28;20370;-67
2023/09/05 11:50:29;;;;;;;7.60;2.63;;;;;;;;;;5036854;28;20388;-67
2023/09/05 11:52:55;;;;;;;7.13;2.80;;;;;;;;;;5036829;28;20461;-69
2023/09/05 11:55:23;;;;;;;3.78;2.53;;;;;;;;;;5036494;28;20782;-69
2023/09/05 11:57:50;;;;;;;3.75;2.38;;;;;;;;;;5054448;28;20476;-68
2023/09/05 12:00:16;;;;;;;4.38;2.50;;;;;;;;;;5055276;28;20380;-67
2023/09/05 12:02:43;;;;;;;6.82;2.50;;;;;;;;;;5056769;28;20730;-69
2023/09/05 12:05:09;;;;;;;3.13;2.22;;;;;;;;;;5057804;28;20747;-68
2023/09/05 12:07:35;;;;;;;7.88;2.65;;;;;;;;;;5054997;28;20447;-67
2023/09/05 12:10:01;;;;;;;2.70;2.20;;;;;;;;;;5037601;28;20378;-67
2023/09/05 12:12:27;;;;;;;2.33;1.90;;;;;;;;;;5036372;28;20392;-68
2023/09/05 12:14:54;;;;;;;6.00;2.22;;;;;;;;;;5053633;28;20409;-68
2023/09/05 12:17:23;;;;;;;2.45;2.17;;;;;;;;;;5054070;28;20393;-69
2023/09/05 12:19:49;;;;;;;3.15;2.28;;;;;;;;;;5053796;28;20373;-69
2023/09/05 12:22:31;;;;;;;2.40;2.20;;;;;;;;;;5054273;28;20867;-69
2023/09/05 12:25:06;;;;;;;4.13;2.03;;;;;;;;;;5053911;28;20377;-68
2023/09/05 12:27:32;;;;;;;4.33;2.00;;;;;;;;;;5053398;28;20457;-68
2023/09/05 12:29:58;;;;;;;3.42;2.00;;;;;;;;;;5053601;28;20388;-68
2023/09/05 12:32:26;;;;;;;3.47;2.20;;;;;;;;;;5053619;28;20381;-68
2023/09/05 12:34:53;;;;;;;6.38;2.38;;;;;;;;;;5053685;28;20413;-68
2023/09/05 12:37:19;;;;;;;3.17;2.08;;;;;;;;;;5053643;28;20389;-68
2023/09/05 12:39:45;;;;;;;3.88;2.30;;;;;;;;;;5053553;28;20382;-68
2023/09/05 12:42:11;;;;;;;3.72;2.65;;;;;;;;;;5053668;28;20416;-68
2023/09/05 12:44:37;;;;;;;4.35;2.30;;;;;;;;;;5053606;28;20416;-68
2023/09/05 12:47:03;;;;;;;4.43;2.20;;;;;;;;;;5053025;28;20808;-68
2023/09/05 12:49:32;;;;;;;4.45;2.42;;;;;;;;;;5053417;28;20382;-68
2023/09/05 12:51:58;;;;;;;10.77;2.67;;;;;;;;;;5053505;28;20400;-68
2023/09/05 12:54:26;;;;;;;5.65;2.30;;;;;;;;;;5052978;28;20895;-68
2023/09/05 12:56:54;;;;;;;3.35;2.20;;;;;;;;;;5053143;28;20898;-68
2023/09/05 12:59:21;;;;;;;5.37;2.10;;;;;;;;;;5053225;28;20732;-68
2023/09/05 13:01:48;;;;;;;5.20;2.50;;;;;;;;;;5055349;28;20386;-70
2023/09/05 13:04:14;;;;;;;5.35;2.42;;;;;;;;;;5053272;28;20821;-68
2023/09/05 13:06:42;;;;;;;6.07;1.97;;;;;;;;;;5053145;28;20958;-68
2023/09/05 13:09:08;;;;;;;3.10;1.83;;;;;;;;;;5052948;28;20384;-68
2023/09/05 13:11:34;;;;;;;2.85;2.00;;;;;;;;;;5052932;28;20386;-68
2023/09/05 13:14:00;;;;;;;2.28;2.00;;;;;;;;;;5053272;28;20416;-68
2023/09/05 13:16:26;;;;;;;3.30;2.15;;;;;;;;;;5052643;28;20494;-68
2023/09/05 13:18:52;;;;;;;3.13;2.20;;;;;;;;;;5052946;28;20382;-68
2023/09/05 13:21:18;;;;;;;3.03;2.20;;;;;;;;;;5053165;28;20377;-67
2023/09/05 13:23:44;;;;;;;7.78;6.10;;;;;;;;;;5052925;28;20381;-66
2023/09/05 13:26:10;;;;;;;4.57;3.40;;;;;;;;;;5053960;28;20220;-68
2023/09/05 13:28:36;;;;;;;6.40;3.25;;;;;;;;;;5058503;28;20166;-68
2023/09/05 13:31:01;;;;;;;4.85;2.30;;;;;;;;;;5060950;28;20182;-68
2023/09/05 13:33:28;;;;;;;3.92;2.60;;;;;;;;;;5053727;28;20209;-65
2023/09/05 13:35:54;;;;;;;3.15;2.13;;;;;;;;;;5053526;28;20542;-68
2023/09/05 13:38:20;;;;;;;3.17;2.20;;;;;;;;;;5053294;28;20178;-68
2023/09/05 13:40:46;;;;;;;6.28;2.25;;;;;;;;;;5053717;28;20174;-68
2023/09/05 13:43:12;;;;;;;3.88;2.47;;;;;;;;;;5053863;28;20640;-68
2023/09/05 13:45:39;;;;;;;3.75;2.00;;;;;;;;;;5053372;28;20206;-68
2023/09/05 13:48:07;;;;;;;4.40;2.15;;;;;;;;;;5053283;28;20186;-67
2023/09/05 13:50:32;;;;;;;2.60;1.95;;;;;;;;;;5053830;28;20558;-68
2023/09/05 13:52:59;;;;;;;2.28;2.08;;;;;;;;;;5053182;28;20176;-67
2023/09/05 13:55:26;;;;;;;6.20;2.40;;;;;;;;;;5053240;28;20268;-68
2023/09/05 13:57:52;;;;;;;11.27;9.27;;;;;;;;;;5053383;28;20211;-68
2023/09/05 14:00:21;;;;;;;38.65;27.10;;;;;;;;;;5053013;28;20216;-68
2023/09/05 14:02:50;;;;;;;20.92;15.85;;;;;;;;;;5053186;28;20175;-68
2023/09/05 14:05:16;;;;;;;30.13;20.92;;;;;;;;;;5052423;28;20170;-68
2023/09/05 14:07:42;;;;;;;38.47;20.20;;;;;;;;;;5052834;28;20194;-67
2023/09/05 14:10:12;;;;;;;16.08;11.00;;;;;;;;;;5053003;28;20668;-67
2023/09/05 14:12:38;;;;;;;;;;;;;;;;;;5053689;28;20033;-67
2023/09/05 14:15:04;;;;;;;;;;;;;;;;;;5052289;28;20406;-67
2023/09/05 14:17:29;;;;;;;;;;;;;;;;;;5053404;28;20443;-66
2023/09/05 14:19:55;;;;;;;10.05;8.65;;;;;;;;;;5053099;28;20310;-67
2023/09/05 14:22:21;;;;;;;23.33;15.05;;;;;;;;;;5052824;28;20171;-67
2023/09/05 14:24:47;;;;;;;9.43;7.28;;;;;;;;;;5052928;28;20232;-67
2023/09/05 14:27:14;;;;;;;5.28;4.43;;;;;;;;;;5053377;28;20198;-66
2023/09/05 14:29:40;;;;;;;6.45;4.45;;;;;;;;;;5052916;28;20198;-67
2023/09/05 14:32:06;;;;;;;5.45;4.95;;;;;;;;;;5052906;28;20202;-68
2023/09/05 14:34:32;;;;;;;;;;;;;;;;;;5052971;28;20321;-66
2023/09/05 14:36:58;;;;;;;;;;;;;;;;;;5053398;28;20123;-67
2023/09/05 14:39:24;;;;;;;11.10;9.57;;;;;;;;;;5053103;28;19964;-66
2023/09/05 14:41:50;;;;;;;9.85;8.85;;;;;;;;;;5052806;28;20660;-66
2023/09/05 14:44:17;;;;;;;10.82;9.77;;;;;;;;;;5052854;28;20694;-67
2023/09/05 14:46:43;;;;;;;15.18;13.60;;;;;;;;;;5052772;28;20210;-67